Flight Track Log - Related Links

Times and Time Zones

All times are in EDT time to prevent confusion due to time zone crossing. See the AWE1940 flight status page for this flight to view local times or setup timezone preferences in your user account.

Time Position Orientation Groundspeed Altitude Reporting Facility
EDT Latitude Longitude Course Direction KTS MPH feet Rate Location/Type
Sun 07:21:30 PM 29.9889 -95.3644 90° East 166 191 900  Level Houston Center
Sun 07:22:44 PM 29.9508 -95.4075 224° Southwest 251 289 3,100 1,488 Climbing Houston Center
Sun 07:23:39 PM 29.9117 -95.3472 127° Southeast 267 307 4,100 635 Climbing Houston Center
Sun 07:24:09 PM 29.8969 -95.3133 117° Southeast 263 303 4,000  Descending Houston Center
Sun 07:24:46 PM 29.8722 -95.2603 118° Southeast 269 310 4,100 1,370 Climbing Houston Center
Sun 07:25:41 PM 29.8528 -95.1856 107° East 267 307 6,100 2,069 Climbing Houston Center
Sun 07:26:00 PM 29.9833 -94.6534 90° East  Level FlightAware Approximate
Sun 07:26:13 PM 29.8583 -95.1525 79° East 267 307 7,100  Level Houston Center
Sun 07:26:48 PM 29.8689 -95.0897 79° East 295 339 8,900 2,585 Climbing Houston Center
Sun 07:27:00 PM 29.9833 -94.5171 90° East  Level FlightAware Approximate
Sun 07:28:16 PM 29.8883 -94.9686 79° East 293 337 12,400  Level Houston Center
Sun 07:29:18 PM 29.9044 -94.8664 80° East 318 366 14,600 2,098 Climbing Houston Center
Sun 07:30:19 PM 29.9272 -94.7342 79° East 349 402 16,700 2,049 Climbing Houston Center
Sun 07:31:21 PM 29.9442 -94.6178 80° East 366 421 18,800 1,887 Climbing Houston Center
Sun 07:32:23 PM 29.9653 -94.4978 78° East 379 436 20,600 1,839 Climbing Houston Center
Sun 07:33:25 PM 29.9861 -94.3678 79° East 392 451 22,600 1,854 Climbing Houston Center
Sun 07:34:26 PM 30.0044 -94.2433 80° East 394 453 24,400 1,415 Climbing Houston Center
Sun 07:35:28 PM 30.0206 -94.1133 82° East 408 470 25,500 1,065 Climbing Houston Center
Sun 07:36:30 PM 30.0372 -93.9778 82° East 426 490 26,600 1,268 Climbing Houston Center
Sun 07:37:31 PM 30.0531 -93.8400 82° East 435 501 28,100 1,268 Climbing Houston Center
Sun 07:38:33 PM 30.0708 -93.7011 82° East 442 509 29,200 1,355 Climbing Houston Center
Sun 07:39:35 PM 30.0903 -93.5344 82° East 444 511 30,900 1,366 Climbing Houston Center
Sun 07:40:36 PM 30.1053 -93.3972 83° East 438 504 32,000 878 Climbing Houston Center
Sun 07:41:38 PM 30.1222 -93.2575 82° East 444 511 32,700 484 Climbing Houston Center
Sun 07:42:40 PM 30.1386 -93.1153 82° East 450 518 33,000 146 Climbing Houston Center
Sun 07:43:41 PM 30.1661 -92.9744 77° East 451 519 33,000  Level Houston Center
Sun 07:44:43 PM 30.2000 -92.8056 77° East 453 521 33,000  Level Houston Center
Sun 07:45:45 PM 30.2294 -92.6631 77° East 456 525 33,000  Level Houston Center
Sun 07:46:46 PM 30.2561 -92.5206 78° East 456 525 33,000 -49 Level Houston Center
Sun 07:47:48 PM 30.2833 -92.3794 77° East 453 521 32,900  Descending Houston Center
Sun 07:48:50 PM 30.3111 -92.2225 78° East 451 519 33,000 49 Climbing Houston Center
Sun 07:49:51 PM 30.3386 -92.0819 77° East 452 520 33,000  Level Houston Center
Sun 07:50:53 PM 30.3650 -91.9411 78° East 451 519 33,000  Level Houston Center
Sun 07:51:55 PM 30.3922 -91.7994 77° East 452 520 33,000  Level Houston Center
Sun 07:52:56 PM 30.4194 -91.6497 78° East 452 520 33,000  Level Houston Center
Sun 07:53:58 PM 30.4469 -91.5075 77° East 453 521 33,000  Level Houston Center
Sun 07:55:00 PM 30.4739 -91.3650 78° East 453 521 33,000  Level Houston Center
Sun 07:56:01 PM 30.5022 -91.2253 77° East 448 516 33,000  Level Houston Center
Sun 07:57:03 PM 30.5383 -91.0594 76° East 444 511 33,000  Level Houston Center
Sun 07:58:05 PM 30.5719 -90.9208 74° East 446 513 33,000  Level Houston Center
Sun 07:59:06 PM 30.6008 -90.7811 76° East 444 511 33,000  Level Houston Center
Sun 08:00:07 PM 30.6336 -90.6411 75° East 449 517 33,000  Level Houston Center
Sun 08:01:09 PM 30.6656 -90.5000 75° East 452 520 33,000  Level Houston Center
Sun 08:02:11 PM 30.6981 -90.3592 75° East 450 518 33,000  Level Houston Center
Sun 08:03:12 PM 30.7292 -90.2175 76° East 451 519 33,000  Level Houston Center
Sun 08:04:14 PM 30.7606 -90.0764 75° East 450 518 33,000  Level Houston Center
Sun 08:05:16 PM 30.7908 -89.9358 76° East 447 514 33,000  Level Houston Center
Sun 08:06:18 PM 30.8275 -89.7647 76° East 450 518 33,000  Level Houston Center
Sun 08:07:19 PM 30.8592 -89.6217 76° East 454 522 33,000  Level Houston Center
Sun 08:08:21 PM 30.8911 -89.4797 75° East 452 520 33,000  Level Houston Center
Sun 08:09:23 PM 30.9203 -89.3350 77° East 458 527 33,000  Level Houston Center
Sun 08:10:25 PM 30.9489 -89.1897 77° East 459 528 33,000  Level Houston Center
Sun 08:11:27 PM 30.9797 -89.0472 76° East 455 524 33,000  Level Houston Center
Sun 08:12:28 PM 31.0133 -88.8867 76° East 455 524 33,000  Level Houston Center
Sun 08:13:30 PM 31.0425 -88.7447 76° East 452 520 33,000 -97 Level Houston Center
Sun 08:14:32 PM 31.0750 -88.5900 76° East 454 522 32,800 -968 Descending Houston Center
Sun 08:15:34 PM 31.1167 -88.4492 71° East 455 524 31,000 -1,790 Descending Houston Center
Sun 08:16:36 PM 31.1853 -88.3258 57° Northeast 454 522 29,100 -976 Descending Houston Center
Sun 08:17:37 PM 31.2519 -88.1989 58° Northeast 471 542 29,000 -49 Descending Houston Center
Sun 08:18:39 PM 31.3197 -88.0694 58° Northeast 465 535 29,000  Level Houston Center
Sun 08:19:41 PM 31.3861 -87.9400 59° Northeast 465 535 29,000  Level Houston Center
Sun 08:20:43 PM 31.4678 -87.7833 59° Northeast 470 541 29,000  Level Houston Center
Sun 08:21:45 PM 31.5372 -87.6525 58° Northeast 473 544 29,000  Level Houston Center
Sun 08:22:47 PM 31.6047 -87.5211 59° Northeast 472 543 29,000  Level Houston Center
Sun 08:23:27 PM 31.6517 -87.4419 55° Northeast 466 536 29,000  Level Atlanta Center
Sun 08:24:27 PM 31.7225 -87.2981 60° Northeast 466 536 29,000  Level Atlanta Center
Sun 08:25:27 PM 31.7883 -87.1686 59° Northeast 461 531 29,000  Level Atlanta Center
Sun 08:26:27 PM 31.8564 -87.0342 59° Northeast 461 531 29,000  Level Atlanta Center
Sun 08:27:27 PM 31.9264 -86.9019 58° Northeast 466 536 29,000  Level Atlanta Center
Sun 08:28:27 PM 31.9942 -86.7692 59° Northeast 466 536 29,000  Level Atlanta Center
Sun 08:29:27 PM 32.0614 -86.6464 57° Northeast 476 548 29,000  Level Atlanta Center
Sun 08:30:27 PM 32.1311 -86.5111 59° Northeast 481 554 29,000  Level Atlanta Center
Sun 08:31:27 PM 32.2028 -86.3633 60° Northeast 476 548 29,000  Level Atlanta Center
Sun 08:32:27 PM 32.2886 -86.2378 51° Northeast 481 554 29,000  Level Atlanta Center
Sun 08:33:27 PM 32.3908 -86.1222 44° Northeast 494 568 29,000  Level Atlanta Center
Sun 08:34:27 PM 32.4886 -86.0089 44° Northeast 487 560 29,000  Level Atlanta Center
Sun 08:35:27 PM 32.5758 -85.8975 47° Northeast 502 578 29,000  Level Atlanta Center
Sun 08:36:27 PM 32.6675 -85.7733 49° Northeast 502 578 29,000  Level Atlanta Center
Sun 08:37:27 PM 32.7567 -85.6492 49° Northeast 497 572 29,000  Level Atlanta Center
Sun 08:38:27 PM 32.8481 -85.5247 49° Northeast 497 572 29,000  Level Atlanta Center
Sun 08:39:27 PM 32.9394 -85.3978 49° Northeast 497 572 29,000  Level Atlanta Center
Sun 08:40:27 PM 33.0283 -85.2753 49° Northeast 497 572 29,000  Level Atlanta Center
Sun 08:41:27 PM 33.1169 -85.1575 48° Northeast 483 556 29,000  Level Atlanta Center
Sun 08:42:27 PM 33.2036 -85.0319 50° Northeast 483 556 29,000  Level Atlanta Center
Sun 08:43:27 PM 33.2944 -84.9086 49° Northeast 488 562 29,000  Level Atlanta Center
Sun 08:44:27 PM 33.3828 -84.7853 49° Northeast 488 562 29,000  Level Atlanta Center
Sun 08:45:27 PM 33.4650 -84.6364 56° Northeast 488 562 29,000 -400 Level Atlanta Center
Sun 08:46:27 PM 33.5139 -84.4847 69° East 478 550 28,200 -850 Descending Atlanta Center
Sun 08:47:27 PM 33.5600 -84.3331 70° East 478 550 27,300 -600 Descending Atlanta Center
Sun 08:48:27 PM 33.6083 -84.1833 69° East 478 550 27,000 -150 Descending Atlanta Center
Sun 08:49:27 PM 33.6586 -84.0389 67° East 478 550 27,000  Level Atlanta Center
Sun 08:50:27 PM 33.7044 -83.8939 69° East 467 537 27,000  Level Atlanta Center
Sun 08:51:27 PM 33.7522 -83.7489 68° East 467 537 27,000  Level Atlanta Center
Sun 08:52:27 PM 33.7978 -83.6039 69° East 462 532 27,000  Level Atlanta Center
Sun 08:53:27 PM 33.8450 -83.4611 68° East 462 532 27,000 -150 Level Atlanta Center
Sun 08:54:27 PM 33.8903 -83.3206 69° East 449 517 26,700 -550 Descending Atlanta Center
Sun 08:55:27 PM 33.9333 -83.1850 69° East 436 502 25,900 -850 Descending Atlanta Center
Sun 08:56:27 PM 33.9781 -83.0467 69° East 436 502 25,000 -450 Descending Atlanta Center
Sun 08:57:27 PM 34.0186 -82.9108 70° East 431 496 25,000 -500 Level Atlanta Center
Sun 08:58:27 PM 34.0611 -82.7775 69° East 431 496 24,000 -500 Descending Atlanta Center
Sun 08:59:27 PM 34.1014 -82.6414 70° East 426 490 24,000  Level Atlanta Center
Sun 09:00:27 PM 34.1458 -82.5128 67° East 426 490 24,000  Level Atlanta Center
Sun 09:01:27 PM 34.1858 -82.3764 70° East 426 490 24,000 -150 Level Atlanta Center
Sun 09:02:27 PM 34.2278 -82.2400 70° East 426 490 23,700 -850 Descending Atlanta Center
Sun 09:03:27 PM 34.2842 -82.1156 61° Northeast 426 490 22,300 -1,800 Descending Atlanta Center
Sun 09:04:27 PM 34.3661 -82.0106 47° Northeast 426 490 20,100 -1,800 Descending Atlanta Center
Sun 09:05:27 PM 34.4436 -81.9078 48° Northeast 414 476 18,700 -1,700 Descending Atlanta Center
Sun 09:06:27 PM 34.5192 -81.8153 45° Northeast 402 463 16,700 -1,900 Descending Atlanta Center
Sun 09:07:27 PM 34.5906 -81.7250 46° Northeast 376 433 14,900 -1,821 Descending Atlanta Center
Sun 09:08:19 PM 34.6497 -81.6500 46° Northeast 361 415 13,300 -1,579 Descending Atlanta Center
Sun 09:09:21 PM 34.7189 -81.5647 45° Northeast 349 402 11,900 -605 Descending Atlanta Center
Sun 09:10:28 PM 34.7881 -81.4742 47° Northeast 332 382 12,000 -236 Climbing Atlanta Center
Sun 09:11:28 PM 34.8489 -81.3939 47° Northeast 324 373 11,400 -1,100 Descending Atlanta Center
Sun 09:12:28 PM 34.9097 -81.3186 45° Northeast 319 367 9,800 -1,309 Descending Atlanta Center
Sun 09:13:18 PM 34.9586 -81.2536 47° Northeast 303 349 9,000 -450 Descending Atlanta Center
Sun 09:14:28 PM 35.0253 -81.1675 47° Northeast 301 346 8,900  Descending Atlanta Center
Sun 09:15:20 PM 35.0761 -81.1050 45° Northeast 302 348 9,000 53 Climbing Atlanta Center
Sun 09:16:21 PM 35.1461 -81.0644 25° Northeast 297 342 9,000 -541 Level Atlanta Center
Sun 09:17:22 PM 35.2331 -81.0433 11° North 305 351 7,900 -984 Descending Atlanta Center
Sun 09:18:23 PM 35.2900 -80.9828 41° Northeast 294 338 7,000 -1,406 Descending Atlanta Center
Sun 09:19:30 PM 35.3506 -80.8942 50° Northeast 291 335 4,900 -1,406 Descending Atlanta Center
Sun 09:20:31 PM 35.3483 -80.8178 92° East 216 249 4,000 -885 Descending Atlanta Center

Login

Don't have an account? Register now (free) for customized features, flight alerts, and more!